createdAt,value
2023-03-29T00:02:33.811Z,68.91
2023-03-29T00:06:39.465Z,69.57
2023-03-29T00:10:43.359Z,71.13
2023-03-29T00:14:46.597Z,71.74
2023-03-29T00:18:51.329Z,72.58
2023-03-29T00:22:54.439Z,72.36
2023-03-29T00:26:57.569Z,72.88
2023-03-29T00:31:11.493Z,72.73
2023-03-29T00:35:16.787Z,72.92
2023-03-29T00:39:20.953Z,73.45
2023-03-29T00:43:24.209Z,73.83
2023-03-29T00:47:32.859Z,74.16
2023-03-29T00:51:39.862Z,74.79
2023-03-29T00:55:48.808Z,75.92
2023-03-29T00:59:53.876Z,75.60
2023-03-29T01:04:05.097Z,77.03
2023-03-29T01:08:18.608Z,77.90
2023-03-29T01:12:25.743Z,79.34
2023-03-29T01:16:30.608Z,80.30
2023-03-29T01:20:49.225Z,81.53
2023-03-29T01:25:07.419Z,81.16
2023-03-29T01:29:15.600Z,82.05
2023-03-29T01:33:23.674Z,82.31
2023-03-29T01:37:34.101Z,83.04
2023-03-29T01:41:47.330Z,83.17
2023-03-29T01:45:56.842Z,83.71
2023-03-29T01:50:08.263Z,85.41
2023-03-29T01:54:16.007Z,86.54
2023-03-29T01:58:21.162Z,86.80
2023-03-29T02:02:28.745Z,87.01
2023-03-29T02:06:36.247Z,87.81
2023-03-29T02:10:39.945Z,88.67
2023-03-29T02:14:43.484Z,88.92
2023-03-29T02:18:50.696Z,89.68
2023-03-29T02:22:58.766Z,90.88
2023-03-29T02:27:02.660Z,91.51
2023-03-29T02:31:12.632Z,91.20
2023-03-29T02:35:22.071Z,91.54
2023-03-29T02:39:27.417Z,93.40
2023-03-29T02:43:31.310Z,93.19
2023-03-29T02:47:39.896Z,94.93
2023-03-29T02:51:49.071Z,94.50
2023-03-29T02:55:54.109Z,94.15
2023-03-29T03:00:00.135Z,95.62
2023-03-29T03:04:03.877Z,95.40
2023-03-29T03:08:09.175Z,96.42
2023-03-29T03:12:14.974Z,96.97
2023-03-29T03:20:41.225Z,96.25
2023-03-29T03:24:46.359Z,95.99
2023-03-29T03:28:49.487Z,96.46
2023-03-29T03:32:52.246Z,96.13
2023-03-29T03:36:57.756Z,97.35
2023-03-29T03:41:03.297Z,96.96
2023-03-29T03:45:08.507Z,97.76
2023-03-29T03:49:11.477Z,99.05
2023-03-29T03:53:15.320Z,98.33
2023-03-29T03:57:19.920Z,99.62
2023-03-29T04:01:22.884Z,99.90
2023-03-29T04:05:25.867Z,100.00
2023-03-29T04:09:29.813Z,100.00
2023-03-29T04:13:35.115Z,100.00
2023-03-29T04:17:38.239Z,99.90
2023-03-29T04:21:40.948Z,99.94
2023-03-29T04:25:43.986Z,99.02
2023-03-29T04:29:49.088Z,99.09
2023-03-29T04:33:52.307Z,98.42
2023-03-29T04:37:55.946Z,99.06
2023-03-29T04:41:59.030Z,97.38
2023-03-29T04:46:03.495Z,97.91
2023-03-29T04:50:09.047Z,98.07
2023-03-29T04:54:11.968Z,98.68
2023-03-29T04:58:15.204Z,97.93
2023-03-29T05:02:20.233Z,97.79
2023-03-29T05:06:23.180Z,96.75
2023-03-29T05:10:26.019Z,96.96
2023-03-29T05:14:28.991Z,95.55
2023-03-29T05:18:33.082Z,95.96
2023-03-29T05:22:36.547Z,94.41
2023-03-29T05:26:40.215Z,92.44
2023-03-29T05:30:43.316Z,87.50
2023-03-29T05:34:47.519Z,78.60
2023-03-29T05:38:52.458Z,61.04
2023-03-29T05:42:55.345Z,47.99
2023-03-29T05:47:01.699Z,44.17
2023-03-29T05:51:06.469Z,39.74
2023-03-29T05:55:10.633Z,38.11
2023-03-29T05:59:13.909Z,36.17
2023-03-29T06:03:21.131Z,33.28
2023-03-29T06:07:27.193Z,30.97
2023-03-29T06:11:30.739Z,30.64
2023-03-29T06:15:33.604Z,30.04
2023-03-29T06:19:36.845Z,28.11
2023-03-29T06:23:42.082Z,26.50
2023-03-29T06:27:46.904Z,27.01
2023-03-29T06:31:50.346Z,27.64
2023-03-29T06:35:53.624Z,27.25
2023-03-29T06:39:58.253Z,26.94
2023-03-29T06:44:01.646Z,24.80
2023-03-29T06:48:06.590Z,26.09
2023-03-29T06:52:10.356Z,26.41
2023-03-29T06:56:14.934Z,23.91
2023-03-29T07:00:28.235Z,25.97
2023-03-29T07:04:32.685Z,24.39
2023-03-29T07:08:43.323Z,23.26
2023-03-29T07:12:48.309Z,22.59
2023-03-29T07:16:52.170Z,22.12
2023-03-29T07:20:55.068Z,22.29
2023-03-29T07:24:58.358Z,20.82
2023-03-29T07:29:05.267Z,21.54
2023-03-29T07:33:09.767Z,19.57
2023-03-29T07:37:12.553Z,20.51
2023-03-29T07:41:15.867Z,19.86
2023-03-29T07:45:26.630Z,20.28
2023-03-29T07:49:31.307Z,19.10
2023-03-29T07:53:34.233Z,20.78
2023-03-29T07:57:37.413Z,20.53
2023-03-29T08:01:42.352Z,18.72
2023-03-29T08:05:46.249Z,18.68
2023-03-29T08:09:49.316Z,19.50
2023-03-29T08:13:53.080Z,18.16
2023-03-29T08:17:57.360Z,17.96
2023-03-29T08:22:02.955Z,17.25
2023-03-29T08:26:08.821Z,17.88
2023-03-29T08:30:12.636Z,19.35
2023-03-29T08:34:16.766Z,17.13
2023-03-29T08:38:19.933Z,17.51
2023-03-29T08:42:41.988Z,18.76
2023-03-29T08:46:50.863Z,16.71
2023-03-29T08:51:02.282Z,17.15
2023-03-29T08:55:15.704Z,14.98
2023-03-29T08:59:23.242Z,14.88
2023-03-29T09:03:30.136Z,16.15
2023-03-29T09:07:34.620Z,15.87
2023-03-29T09:11:56.386Z,15.77
2023-03-29T09:16:12.031Z,17.58
2023-03-29T09:20:25.201Z,17.17
2023-03-29T09:24:48.389Z,16.32
2023-03-29T09:29:02.946Z,19.37
2023-03-29T09:33:13.831Z,17.06
2023-03-29T09:37:24.807Z,19.26
2023-03-29T09:41:35.749Z,20.37
2023-03-29T09:45:42.093Z,19.17
2023-03-29T09:49:51.432Z,20.95
2023-03-29T09:53:59.688Z,17.98
2023-03-29T09:58:14.679Z,20.71
2023-03-29T10:02:21.464Z,18.97
2023-03-29T10:06:27.042Z,20.00
2023-03-29T10:10:34.989Z,19.77
2023-03-29T10:14:43.904Z,20.91
2023-03-29T10:18:47.490Z,21.29
2023-03-29T10:22:58.433Z,22.00
2023-03-29T10:27:04.000Z,20.32
2023-03-29T10:31:09.454Z,24.86
2023-03-29T10:35:23.856Z,24.77
2023-03-29T10:39:32.174Z,24.15
2023-03-29T10:43:39.526Z,26.43
2023-03-29T10:47:46.919Z,24.18
2023-03-29T10:51:51.776Z,26.54
2023-03-29T10:56:05.698Z,26.62
2023-03-29T11:00:19.967Z,29.67
2023-03-29T11:04:38.218Z,26.48
2023-03-29T11:08:50.800Z,24.91
2023-03-29T11:13:01.579Z,27.24
2023-03-29T11:17:17.435Z,28.54
2023-03-29T11:21:30.447Z,28.49
2023-03-29T11:25:43.433Z,28.82
2023-03-29T11:29:58.819Z,26.18
2023-03-29T11:34:17.829Z,25.70
2023-03-29T11:38:28.270Z,26.89
2023-03-29T11:42:34.673Z,25.91
2023-03-29T11:46:41.871Z,28.56
2023-03-29T11:50:52.598Z,24.96
2023-03-29T11:55:04.129Z,28.50
2023-03-29T11:59:14.803Z,25.65
2023-03-29T12:03:24.056Z,24.76
2023-03-29T12:07:33.228Z,26.00
2023-03-29T12:11:41.809Z,25.39
2023-03-29T12:15:49.739Z,26.59
2023-03-29T12:20:04.545Z,26.47
2023-03-29T12:24:08.274Z,24.79
2023-03-29T12:28:29.417Z,26.67
2023-03-29T12:32:50.839Z,24.90
2023-03-29T12:37:12.483Z,23.95
2023-03-29T12:41:21.910Z,25.68
2023-03-29T12:45:33.955Z,24.52
2023-03-29T12:49:39.720Z,23.70
2023-03-29T12:53:49.523Z,23.12
2023-03-29T12:58:06.139Z,25.43
2023-03-29T13:02:35.001Z,24.27
2023-03-29T13:07:05.694Z,25.06
2023-03-29T13:11:14.780Z,26.92
2023-03-29T13:15:25.454Z,25.98
2023-03-29T13:19:39.901Z,27.06
2023-03-29T13:23:54.634Z,28.14
2023-03-29T13:28:06.387Z,25.06
2023-03-29T13:32:34.956Z,25.84
2023-03-29T13:36:55.101Z,25.40
2023-03-29T13:41:03.742Z,24.79
2023-03-29T13:45:18.744Z,26.72
2023-03-29T13:49:25.817Z,27.57
2023-03-29T13:53:35.134Z,29.08
2023-03-29T13:57:43.869Z,27.49
2023-03-29T14:01:53.633Z,27.09
2023-03-29T14:06:01.429Z,29.47
2023-03-29T14:10:08.129Z,26.95
2023-03-29T14:14:12.903Z,28.01
2023-03-29T14:18:19.428Z,29.34
2023-03-29T14:22:22.768Z,28.49
2023-03-29T14:26:31.746Z,32.05
2023-03-29T14:30:35.365Z,29.88
2023-03-29T14:34:40.721Z,29.18
2023-03-29T14:38:48.666Z,28.01
2023-03-29T14:42:53.455Z,29.53
2023-03-29T14:46:57.444Z,29.33
2023-03-29T14:51:00.758Z,29.88
2023-03-29T14:55:04.735Z,31.24
2023-03-29T14:59:26.488Z,29.84
2023-03-29T15:03:29.616Z,30.46
2023-03-29T15:07:34.685Z,30.47
2023-03-29T15:11:40.100Z,31.03
2023-03-29T15:15:45.280Z,30.29
2023-03-29T15:19:48.493Z,32.10
2023-03-29T15:24:00.176Z,31.48
2023-03-29T15:28:03.137Z,31.14
2023-03-29T15:32:10.283Z,31.48
2023-03-29T15:36:14.720Z,31.68
2023-03-29T15:40:21.545Z,31.47
2023-03-29T15:44:28.652Z,32.12
2023-03-29T15:48:34.008Z,33.41
2023-03-29T15:52:37.217Z,35.10
2023-03-29T15:56:48.816Z,34.68
2023-03-29T16:00:55.725Z,35.66
2023-03-29T16:05:01.949Z,36.77
2023-03-29T16:09:08.847Z,36.15
2023-03-29T16:13:14.696Z,36.18
2023-03-29T16:17:17.843Z,37.76
2023-03-29T16:21:24.519Z,38.52
2023-03-29T16:25:27.620Z,39.72
2023-03-29T16:29:30.828Z,39.92
2023-03-29T16:33:33.869Z,40.88
2023-03-29T16:37:38.396Z,41.18
2023-03-29T16:41:42.314Z,43.14
2023-03-29T16:45:46.398Z,42.91
2023-03-29T16:49:49.325Z,43.25
2023-03-29T16:53:54.327Z,43.55
2023-03-29T16:57:57.692Z,44.30
2023-03-29T17:02:03.247Z,45.45
2023-03-29T17:06:07.706Z,45.89
2023-03-29T17:10:13.443Z,48.26
2023-03-29T17:14:16.086Z,51.24
2023-03-29T17:18:19.320Z,52.38
2023-03-29T17:22:22.906Z,51.91
2023-03-29T17:26:27.684Z,51.39
2023-03-29T17:30:31.151Z,51.97
2023-03-29T17:34:34.343Z,51.10
2023-03-29T17:38:38.242Z,51.52
2023-03-29T17:42:46.647Z,51.09
2023-03-29T17:46:49.665Z,52.25
2023-03-29T17:50:52.923Z,52.96
2023-03-29T17:54:56.054Z,53.50
2023-03-29T17:59:00.696Z,53.77
2023-03-29T18:03:03.725Z,54.43
2023-03-29T18:07:06.918Z,55.30
2023-03-29T18:11:12.404Z,56.50
2023-03-29T18:15:16.922Z,57.60
2023-03-29T18:19:20.087Z,58.99
2023-03-29T18:23:26.460Z,58.86
2023-03-29T18:27:29.563Z,58.87
2023-03-29T18:31:33.990Z,59.21
2023-03-29T18:35:39.353Z,61.07
2023-03-29T18:39:43.357Z,59.23
2023-03-29T18:43:47.934Z,57.66
2023-03-29T18:47:56.121Z,57.27
2023-03-29T18:51:58.965Z,56.96
2023-03-29T18:56:03.021Z,55.72
2023-03-29T19:00:12.812Z,55.61
2023-03-29T19:04:17.022Z,55.26
2023-03-29T19:08:19.890Z,57.25
2023-03-29T19:12:22.846Z,57.40
2023-03-29T19:16:27.681Z,56.03
2023-03-29T19:20:32.165Z,56.30
2023-03-29T19:24:35.315Z,55.69
2023-03-29T19:28:37.850Z,56.99
2023-03-29T19:32:40.608Z,56.35
2023-03-29T19:36:44.847Z,58.01
2023-03-29T19:40:48.183Z,55.65
2023-03-29T19:44:51.300Z,55.17
2023-03-29T19:48:58.040Z,54.91
2023-03-29T19:53:02.401Z,55.44
2023-03-29T19:57:07.414Z,56.73
2023-03-29T20:01:10.471Z,56.75
2023-03-29T20:05:16.874Z,57.61
2023-03-29T20:09:21.210Z,56.60
2023-03-29T20:13:37.394Z,56.04
2023-03-29T20:17:42.016Z,56.25
2023-03-29T20:21:44.999Z,57.07
2023-03-29T20:25:49.302Z,57.14
2023-03-29T20:29:52.678Z,56.16
2023-03-29T20:33:57.546Z,56.61
2023-03-29T20:38:00.879Z,56.99
2023-03-29T20:42:06.568Z,57.37
2023-03-29T20:46:18.554Z,58.49
2023-03-29T20:50:26.505Z,58.37
2023-03-29T20:54:29.404Z,58.91
2023-03-29T20:58:34.250Z,59.06
2023-03-29T21:02:38.344Z,60.24
2023-03-29T21:06:41.682Z,60.84
2023-03-29T21:10:48.086Z,60.84
2023-03-29T21:14:52.111Z,61.58
2023-03-29T21:18:55.063Z,62.08
2023-03-29T21:22:58.386Z,62.33
2023-03-29T21:27:02.028Z,62.65
2023-03-29T21:31:08.400Z,63.42
2023-03-29T21:35:13.030Z,63.30
2023-03-29T21:39:17.734Z,62.98
2023-03-29T21:43:23.095Z,63.20
2023-03-29T21:47:27.536Z,63.09
2023-03-29T21:51:30.097Z,61.74
2023-03-29T21:55:36.410Z,61.98
2023-03-29T21:59:39.363Z,61.45
2023-03-29T22:03:43.509Z,63.69
2023-03-29T22:07:50.548Z,61.04
2023-03-29T22:11:53.587Z,60.78
2023-03-29T22:16:00.167Z,60.06
2023-03-29T22:20:14.134Z,60.17
2023-03-29T22:24:17.896Z,59.15
2023-03-29T22:28:20.945Z,59.03
2023-03-29T22:32:23.831Z,59.15
2023-03-29T22:36:29.788Z,60.08
2023-03-29T22:40:33.521Z,59.06
2023-03-29T22:44:36.589Z,60.17
2023-03-29T22:48:40.062Z,60.28
2023-03-29T22:52:44.784Z,60.32
2023-03-29T22:56:48.046Z,60.56
2023-03-29T23:00:54.125Z,59.75
2023-03-29T23:04:57.107Z,59.94
2023-03-29T23:09:04.712Z,60.81
2023-03-29T23:13:10.206Z,60.49
2023-03-29T23:17:13.649Z,61.69
2023-03-29T23:21:16.494Z,60.97
2023-03-29T23:25:21.102Z,62.75
2023-03-29T23:29:27.002Z,63.25
2023-03-29T23:33:33.679Z,63.00
2023-03-29T23:37:38.062Z,64.15
2023-03-29T23:41:42.606Z,64.80
2023-03-29T23:45:45.589Z,65.65
2023-03-29T23:49:48.522Z,65.84
2023-03-29T23:53:51.974Z,66.81
2023-03-29T23:57:56.390Z,67.23
